Time;durP1;ratioP1;P1;durP2;ratioP2;P2;SDS_P1;SDS_P2;PMS_P1;PMS_P2;Temp;Humidity;BMP_temperature;BMP_pressure;BME280_temperature;BME280_humidity;BME280_pressure;Samples;Min_cycle;Max_cycle;Signal;HPM_P1;HPM_P2
2021/07/26 00:02:00;;;;;;;8.37;2.80;;;;;;;;;;5032467;28;20029;-77
2021/07/26 00:04:26;;;;;;;6.10;2.70;;;;;;;;;;4998898;28;20053;-77
2021/07/26 00:06:51;;;;;;;5.10;2.50;;;;;;;;;;5033016;28;20065;-77
2021/07/26 00:09:16;;;;;;;5.00;2.43;;;;;;;;;;5015533;28;20065;-79
2021/07/26 00:11:42;;;;;;;5.20;2.53;;;;;;;;;;5033237;28;20065;-77
2021/07/26 00:14:07;;;;;;;6.20;2.83;;;;;;;;;;5032405;28;20068;-77
2021/07/26 00:16:33;;;;;;;5.50;2.73;;;;;;;;;;5015256;28;20464;-77
2021/07/26 00:18:58;;;;;;;4.67;2.30;;;;;;;;;;5015191;28;20111;-77
2021/07/26 00:21:23;;;;;;;5.50;2.70;;;;;;;;;;5015040;28;20104;-78
2021/07/26 00:23:49;;;;;;;5.23;2.80;;;;;;;;;;5018806;28;20126;-77
2021/07/26 00:26:14;;;;;;;6.13;2.60;;;;;;;;;;5018626;28;20052;-78
2021/07/26 00:28:39;;;;;;;5.37;2.53;;;;;;;;;;5036326;28;20056;-77
2021/07/26 00:31:05;;;;;;;6.13;2.93;;;;;;;;;;5002461;28;20117;-77
2021/07/26 00:34:08;;;;;;;5.13;2.70;;;;;;;;;;5018849;28;20036;-77
2021/07/26 00:36:37;;;;;;;5.13;2.22;;;;;;;;;;5018881;28;20037;-77
2021/07/26 00:39:03;;;;;;;5.45;2.75;;;;;;;;;;5018911;28;20033;-77
2021/07/26 00:41:28;;;;;;;4.57;2.55;;;;;;;;;;5015063;28;20102;-77
2021/07/26 00:43:54;;;;;;;5.57;2.70;;;;;;;;;;5035206;28;20455;-77
2021/07/26 00:46:19;;;;;;;5.10;2.37;;;;;;;;;;5002593;28;20487;-77
2021/07/26 00:48:44;;;;;;;5.40;2.40;;;;;;;;;;5002064;28;20056;-77
2021/07/26 00:51:10;;;;;;;5.17;2.43;;;;;;;;;;5018620;28;20061;-77
2021/07/26 00:53:36;;;;;;;6.28;2.63;;;;;;;;;;5001953;28;20029;-77
2021/07/26 00:56:01;;;;;;;5.00;2.78;;;;;;;;;;5002017;28;20210;-78
2021/07/26 00:58:27;;;;;;;5.23;2.53;;;;;;;;;;4985284;28;20492;-77
2021/07/26 01:00:52;;;;;;;6.27;2.67;;;;;;;;;;5018438;28;20498;-77
2021/07/26 01:03:17;;;;;;;5.67;2.50;;;;;;;;;;5018222;28;20025;-77
2021/07/26 01:05:43;;;;;;;5.87;2.60;;;;;;;;;;5018515;28;20469;-77
2021/07/26 01:08:08;;;;;;;5.03;2.40;;;;;;;;;;5017926;28;20045;-77
2021/07/26 01:10:33;;;;;;;5.73;2.60;;;;;;;;;;5018309;28;20103;-77
2021/07/26 01:12:59;;;;;;;4.23;2.27;;;;;;;;;;5001738;28;20060;-77
2021/07/26 01:15:24;;;;;;;5.17;2.50;;;;;;;;;;5035712;28;20496;-77
2021/07/26 01:18:21;;;;;;;5.97;2.50;;;;;;;;;;5017855;28;20548;-77
2021/07/26 01:20:54;;;;;;;6.03;2.53;;;;;;;;;;5017901;28;20027;-77
2021/07/26 01:23:20;;;;;;;5.63;2.63;;;;;;;;;;5002117;28;20507;-77
2021/07/26 01:25:45;;;;;;;5.22;2.58;;;;;;;;;;4982000;28;20112;-77
2021/07/26 01:28:13;;;;;;;4.80;2.60;;;;;;;;;;5025596;28;20033;-77
2021/07/26 01:30:38;;;;;;;6.10;2.85;;;;;;;;;;5001476;28;20108;-77
2021/07/26 01:33:07;;;;;;;5.90;2.53;;;;;;;;;;5017714;28;20041;-77
2021/07/26 01:35:32;;;;;;;5.57;2.60;;;;;;;;;;5001081;28;20029;-77
2021/07/26 01:37:58;;;;;;;6.40;2.83;;;;;;;;;;5035325;28;20060;-77
2021/07/26 01:40:23;;;;;;;6.53;2.90;;;;;;;;;;5033815;28;20108;-77
2021/07/26 01:42:48;;;;;;;5.47;2.20;;;;;;;;;;5017374;28;20049;-77
2021/07/26 01:45:14;;;;;;;5.30;2.63;;;;;;;;;;5017783;28;20064;-77
2021/07/26 01:47:48;;;;;;;5.93;2.73;;;;;;;;;;5035214;28;20025;-77
2021/07/26 01:50:13;;;;;;;6.53;2.80;;;;;;;;;;5034161;28;20532;-77
2021/07/26 01:52:39;;;;;;;5.70;2.80;;;;;;;;;;5017134;28;20116;-77
2021/07/26 01:55:04;;;;;;;6.37;2.50;;;;;;;;;;5001126;28;20063;-77
2021/07/26 01:57:31;;;;;;;5.17;2.50;;;;;;;;;;5017266;28;20052;-77
2021/07/26 01:59:56;;;;;;;6.13;2.53;;;;;;;;;;5000688;28;20279;-77
2021/07/26 02:02:23;;;;;;;6.83;2.77;;;;;;;;;;5033226;28;20472;-77
2021/07/26 02:04:48;;;;;;;5.97;2.78;;;;;;;;;;5017561;28;20032;-77
2021/07/26 02:07:13;;;;;;;6.23;2.77;;;;;;;;;;5016904;28;20030;-77
2021/07/26 02:09:39;;;;;;;5.10;2.47;;;;;;;;;;5017365;28;20047;-77
2021/07/26 02:12:04;;;;;;;6.07;2.90;;;;;;;;;;5017165;28;20060;-77
2021/07/26 02:14:30;;;;;;;6.40;3.20;;;;;;;;;;5000489;28;20036;-77
2021/07/26 02:16:55;;;;;;;5.53;2.80;;;;;;;;;;5033321;28;20111;-77
2021/07/26 02:19:20;;;;;;;5.53;2.50;;;;;;;;;;5017108;28;20056;-77
2021/07/26 02:21:46;;;;;;;5.47;2.60;;;;;;;;;;5000523;28;20457;-77
2021/07/26 02:24:11;;;;;;;6.83;2.87;;;;;;;;;;5033230;28;20124;-77
2021/07/26 02:26:36;;;;;;;7.23;3.00;;;;;;;;;;5016445;28;20029;-77
2021/07/26 02:29:02;;;;;;;5.87;2.67;;;;;;;;;;5016447;28;20067;-77
2021/07/26 02:31:27;;;;;;;5.07;2.40;;;;;;;;;;5016624;28;20021;-77
2021/07/26 02:33:53;;;;;;;6.17;2.90;;;;;;;;;;5016142;28;20120;-77
2021/07/26 02:36:18;;;;;;;4.60;2.40;;;;;;;;;;5000052;28;20057;-77
2021/07/26 02:38:43;;;;;;;6.70;3.07;;;;;;;;;;5016573;28;20056;-77
2021/07/26 02:41:12;;;;;;;6.77;2.70;;;;;;;;;;5032691;28;20057;-77
2021/07/26 02:43:38;;;;;;;5.53;2.53;;;;;;;;;;5016402;28;20028;-77
2021/07/26 02:46:05;;;;;;;4.53;2.30;;;;;;;;;;4998888;28;20029;-77
2021/07/26 02:48:31;;;;;;;6.65;2.80;;;;;;;;;;5016845;28;20398;-77
2021/07/26 02:50:56;;;;;;;5.93;2.80;;;;;;;;;;4999911;28;20029;-77
2021/07/26 02:53:22;;;;;;;5.17;2.63;;;;;;;;;;4999585;28;20069;-77
2021/07/26 02:55:47;;;;;;;5.10;2.50;;;;;;;;;;4999714;28;20049;-77
2021/07/26 02:58:12;;;;;;;5.13;2.40;;;;;;;;;;5033511;28;20112;-77
2021/07/26 03:00:38;;;;;;;7.87;2.97;;;;;;;;;;5016338;28;20065;-77
2021/07/26 03:03:03;;;;;;;6.30;2.67;;;;;;;;;;5015457;28;20060;-77
2021/07/26 03:05:29;;;;;;;5.10;2.60;;;;;;;;;;5033336;28;20057;-77
2021/07/26 03:07:54;;;;;;;5.95;2.70;;;;;;;;;;5015726;28;20029;-77
2021/07/26 03:10:20;;;;;;;6.03;2.53;;;;;;;;;;5015994;28;20539;-77
2021/07/26 03:12:45;;;;;;;6.00;2.93;;;;;;;;;;4999300;28;20428;-77
2021/07/26 03:15:11;;;;;;;6.03;2.43;;;;;;;;;;5015593;28;20442;-77
2021/07/26 03:17:37;;;;;;;5.67;2.90;;;;;;;;;;5016608;28;20472;-77
2021/07/26 03:20:03;;;;;;;5.90;2.75;;;;;;;;;;5033192;28;20041;-77
2021/07/26 03:22:46;;;;;;;6.17;2.93;;;;;;;;;;5015067;28;20025;-77
2021/07/26 03:25:11;;;;;;;5.70;2.60;;;;;;;;;;5033149;28;20384;-77
2021/07/26 03:27:37;;;;;;;6.57;2.70;;;;;;;;;;5015365;28;20025;-77
2021/07/26 03:30:03;;;;;;;5.47;2.60;;;;;;;;;;5032724;28;20053;-77
2021/07/26 03:32:28;;;;;;;5.22;2.60;;;;;;;;;;4998997;28;20061;-77
2021/07/26 03:34:53;;;;;;;6.20;2.70;;;;;;;;;;5031881;28;20072;-77
2021/07/26 03:37:19;;;;;;;5.17;2.60;;;;;;;;;;5015202;28;20064;-77
2021/07/26 03:39:44;;;;;;;5.30;2.70;;;;;;;;;;5015605;28;20060;-77
2021/07/26 03:42:09;;;;;;;6.60;2.80;;;;;;;;;;5015601;28;20065;-77
2021/07/26 03:44:35;;;;;;;4.77;2.60;;;;;;;;;;5014985;28;20049;-77
2021/07/26 03:47:00;;;;;;;5.67;2.90;;;;;;;;;;5032676;28;20065;-77
2021/07/26 03:49:25;;;;;;;4.60;2.47;;;;;;;;;;5033121;28;20160;-77
2021/07/26 03:51:51;;;;;;;6.97;2.70;;;;;;;;;;5015047;28;20508;-77
2021/07/26 03:54:16;;;;;;;5.27;2.50;;;;;;;;;;5031630;28;20515;-77
2021/07/26 03:56:41;;;;;;;6.27;2.50;;;;;;;;;;4999568;28;20068;-77
2021/07/26 03:59:07;;;;;;;5.10;2.73;;;;;;;;;;5066761;23;20085;-79
2021/07/26 04:01:32;;;;;;;6.57;2.80;;;;;;;;;;5021895;28;20068;-79
2021/07/26 04:03:57;;;;;;;6.53;2.70;;;;;;;;;;5029531;28;20112;-79
2021/07/26 04:06:23;;;;;;;6.20;2.67;;;;;;;;;;5029647;28;20059;-79
2021/07/26 04:08:50;;;;;;;5.67;2.50;;;;;;;;;;5044878;28;20061;-79
2021/07/26 04:13:53;;;;;;;5.78;2.60;;;;;;;;;;5043928;28;20047;-77
2021/07/26 04:16:18;;;;;;;5.40;2.40;;;;;;;;;;5044019;28;20043;-77
2021/07/26 04:18:46;;;;;;;5.10;2.77;;;;;;;;;;5043278;28;20021;-77
2021/07/26 04:21:11;;;;;;;6.97;2.90;;;;;;;;;;5007157;28;20030;-77
2021/07/26 04:23:37;;;;;;;6.57;2.80;;;;;;;;;;5041181;28;20033;-77
2021/07/26 04:26:02;;;;;;;5.47;2.70;;;;;;;;;;5027014;28;20020;-77
2021/07/26 04:28:27;;;;;;;5.57;2.60;;;;;;;;;;4993351;28;20021;-77
2021/07/26 04:30:53;;;;;;;5.17;2.40;;;;;;;;;;5027967;28;20029;-77
2021/07/26 04:33:18;;;;;;;5.20;2.53;;;;;;;;;;5025865;28;20058;-77
2021/07/26 04:35:43;;;;;;;5.13;2.53;;;;;;;;;;5010724;28;20064;-77
2021/07/26 04:38:09;;;;;;;4.70;2.47;;;;;;;;;;5039003;28;20031;-77
2021/07/26 04:40:34;;;;;;;5.70;2.90;;;;;;;;;;5004220;28;20444;-77
2021/07/26 04:42:59;;;;;;;5.83;2.80;;;;;;;;;;5006653;28;20453;-77
2021/07/26 04:45:25;;;;;;;5.50;2.43;;;;;;;;;;5042529;28;20055;-77
2021/07/26 04:47:50;;;;;;;4.77;2.37;;;;;;;;;;5015131;28;20448;-77
2021/07/26 04:50:16;;;;;;;4.87;2.43;;;;;;;;;;5024572;28;20110;-77
2021/07/26 04:52:42;;;;;;;4.20;2.40;;;;;;;;;;5012590;28;20040;-77
2021/07/26 04:55:07;;;;;;;5.40;2.60;;;;;;;;;;5006502;28;20112;-77
2021/07/26 04:57:33;;;;;;;4.97;2.47;;;;;;;;;;5005998;28;20021;-77
2021/07/26 04:59:58;;;;;;;5.00;2.43;;;;;;;;;;5022312;28;20306;-77
2021/07/26 05:02:23;;;;;;;6.30;2.70;;;;;;;;;;5025723;28;20048;-77
2021/07/26 05:04:49;;;;;;;5.60;2.70;;;;;;;;;;5009087;28;20127;-77
2021/07/26 05:07:14;;;;;;;6.80;2.47;;;;;;;;;;5023680;28;20052;-77
2021/07/26 05:09:40;;;;;;;6.23;2.60;;;;;;;;;;5002988;28;20059;-77
2021/07/26 05:12:07;;;;;;;5.80;2.80;;;;;;;;;;5039885;28;20128;-77
2021/07/26 05:14:33;;;;;;;5.32;2.53;;;;;;;;;;5007528;28;20186;-77
2021/07/26 05:16:58;;;;;;;5.23;2.50;;;;;;;;;;5019613;28;20121;-77
2021/07/26 05:19:24;;;;;;;5.70;2.73;;;;;;;;;;5033661;28;20045;-77
2021/07/26 05:21:49;;;;;;;5.10;2.77;;;;;;;;;;5024705;28;20049;-77
2021/07/26 05:24:14;;;;;;;4.80;2.60;;;;;;;;;;5019172;28;20057;-77
2021/07/26 05:26:40;;;;;;;6.13;2.63;;;;;;;;;;5018948;28;20049;-77
2021/07/26 05:29:05;;;;;;;5.67;2.50;;;;;;;;;;5019198;28;20480;-77
2021/07/26 05:31:30;;;;;;;5.43;2.37;;;;;;;;;;5035388;28;20453;-77
2021/07/26 05:33:56;;;;;;;4.57;2.40;;;;;;;;;;5005645;28;20025;-77
2021/07/26 05:36:24;;;;;;;5.20;2.70;;;;;;;;;;5012235;28;20109;-77
2021/07/26 05:38:50;;;;;;;5.45;2.60;;;;;;;;;;5002731;28;20060;-77
2021/07/26 05:41:15;;;;;;;;;;;;;;;;;;5031941;28;20184;-77
2021/07/26 05:43:41;;;;;;;5.40;2.83;;;;;;;;;;5046882;28;19988;-77
2021/07/26 05:46:06;;;;;;;4.60;2.40;;;;;;;;;;5018874;28;20096;-77
2021/07/26 05:48:31;;;;;;;5.37;2.90;;;;;;;;;;5003589;28;20443;-77
2021/07/26 05:50:57;;;;;;;5.33;2.80;;;;;;;;;;5006689;28;20059;-78
2021/07/26 05:53:22;;;;;;;6.17;2.60;;;;;;;;;;5020462;28;20059;-77
2021/07/26 05:55:47;;;;;;;6.20;2.83;;;;;;;;;;4990647;28;20040;-77
2021/07/26 05:58:13;;;;;;;5.07;2.60;;;;;;;;;;5018606;28;20496;-77
2021/07/26 06:00:43;;;;;;;7.40;2.80;;;;;;;;;;5035593;28;20523;-77
2021/07/26 06:03:09;;;;;;;5.80;2.80;;;;;;;;;;5000044;28;20084;-77
2021/07/26 06:05:35;;;;;;;6.10;3.00;;;;;;;;;;5037976;28;20021;-77
2021/07/26 06:08:00;;;;;;;5.53;2.80;;;;;;;;;;5004917;28;20025;-77
2021/07/26 06:10:25;;;;;;;5.23;2.57;;;;;;;;;;5018716;28;20028;-76
2021/07/26 06:12:54;;;;;;;4.97;2.77;;;;;;;;;;5007537;28;20127;-77
2021/07/26 06:15:20;;;;;;;5.57;2.47;;;;;;;;;;5020470;28;20025;-77
2021/07/26 06:17:45;;;;;;;4.93;2.47;;;;;;;;;;5005388;28;20553;-77
2021/07/26 06:20:11;;;;;;;6.10;2.73;;;;;;;;;;5001945;28;20029;-77
2021/07/26 06:22:37;;;;;;;;;;;;;;;;;;5012400;28;20110;-77
2021/07/26 06:25:04;;;;;;;5.00;2.60;;;;;;;;;;5003462;28;19909;-77
2021/07/26 06:27:29;;;;;;;5.65;2.60;;;;;;;;;;5008445;28;20025;-77
2021/07/26 06:29:55;;;;;;;4.33;2.30;;;;;;;;;;5036171;28;20111;-77
2021/07/26 06:32:20;;;;;;;4.80;2.70;;;;;;;;;;5021449;28;20068;-78
2021/07/26 06:34:45;;;;;;;5.60;2.50;;;;;;;;;;5006021;28;20060;-77
2021/07/26 06:37:12;;;;;;;4.78;2.50;;;;;;;;;;5022194;28;20135;-77
2021/07/26 06:39:37;;;;;;;5.27;2.70;;;;;;;;;;5009503;28;20499;-77
2021/07/26 06:42:03;;;;;;;4.83;2.43;;;;;;;;;;5002363;28;20025;-79
2021/07/26 06:44:28;;;;;;;5.00;2.73;;;;;;;;;;5023282;28;20622;-79
2021/07/26 06:46:53;;;;;;;5.10;2.70;;;;;;;;;;5026964;28;20025;-79
2021/07/26 06:49:19;;;;;;;4.40;2.40;;;;;;;;;;5022166;28;20053;-79
2021/07/26 06:51:44;;;;;;;4.30;2.33;;;;;;;;;;5021706;28;20044;-80
2021/07/26 06:54:09;;;;;;;4.80;2.37;;;;;;;;;;5021580;28;20499;-79
2021/07/26 06:56:35;;;;;;;4.33;2.60;;;;;;;;;;5016511;28;20108;-78
2021/07/26 06:59:00;;;;;;;4.60;2.57;;;;;;;;;;5002809;28;20033;-78
2021/07/26 07:01:27;;;;;;;5.03;2.67;;;;;;;;;;5009269;28;20106;-78
2021/07/26 07:03:55;;;;;;;5.43;2.60;;;;;;;;;;5021881;28;20394;-78
2021/07/26 07:06:23;;;;;;;4.97;2.47;;;;;;;;;;5022027;28;20395;-79
2021/07/26 07:08:48;;;;;;;5.28;2.58;;;;;;;;;;5006231;28;20025;-79
2021/07/26 07:11:15;;;;;;;5.23;2.87;;;;;;;;;;5003497;28;20025;-78
2021/07/26 07:13:42;;;;;;;5.32;2.63;;;;;;;;;;5005328;28;20075;-79
2021/07/26 07:16:11;;;;;;;4.45;2.45;;;;;;;;;;5005093;28;20477;-78
2021/07/26 07:18:37;;;;;;;4.68;2.67;;;;;;;;;;5018439;28;20495;-78
2021/07/26 07:21:05;;;;;;;4.03;2.33;;;;;;;;;;5020720;28;20024;-79
2021/07/26 07:23:31;;;;;;;4.97;2.40;;;;;;;;;;5035627;28;20024;-78
2021/07/26 07:25:56;;;;;;;5.43;2.73;;;;;;;;;;5004534;28;20029;-78
2021/07/26 07:28:22;;;;;;;4.63;2.63;;;;;;;;;;5029321;28;20064;-77
2021/07/26 07:30:47;;;;;;;4.97;2.47;;;;;;;;;;5002016;28;20504;-78
2021/07/26 07:33:13;;;;;;;4.80;2.50;;;;;;;;;;5002480;28;20056;-78
2021/07/26 07:35:38;;;;;;;4.63;2.60;;;;;;;;;;5021096;28;20028;-78
2021/07/26 07:38:03;;;;;;;4.57;2.50;;;;;;;;;;5021221;28;20059;-78
2021/07/26 07:40:29;;;;;;;4.83;2.23;;;;;;;;;;5003320;28;20400;-79
2021/07/26 07:42:54;;;;;;;6.10;2.87;;;;;;;;;;5020425;28;20025;-78
2021/07/26 07:45:19;;;;;;;7.40;3.40;;;;;;;;;;5021013;28;20077;-79
2021/07/26 07:47:45;;;;;;;7.03;3.87;;;;;;;;;;5021091;28;20067;-79
2021/07/26 07:50:13;;;;;;;9.18;3.25;;;;;;;;;;4986167;28;20033;-78
2021/07/26 07:52:39;;;;;;;7.68;3.38;;;;;;;;;;5001034;28;20033;-79
2021/07/26 07:55:08;;;;;;;10.05;3.45;;;;;;;;;;5011760;28;20052;-78
2021/07/26 07:57:36;;;;;;;8.60;3.30;;;;;;;;;;5014851;28;20033;-78
2021/07/26 08:00:06;;;;;;;9.15;3.80;;;;;;;;;;5007949;28;20091;-79
2021/07/26 08:02:31;;;;;;;8.43;3.13;;;;;;;;;;5011943;28;20112;-76
2021/07/26 08:04:57;;;;;;;8.23;3.60;;;;;;;;;;5019085;28;20155;-79
2021/07/26 08:07:22;;;;;;;7.93;4.23;;;;;;;;;;5013632;28;20506;-78
2021/07/26 08:09:48;;;;;;;9.27;4.10;;;;;;;;;;5020070;28;20028;-79
2021/07/26 08:12:14;;;;;;;8.50;3.80;;;;;;;;;;4998723;28;20104;-77
2021/07/26 08:14:39;;;;;;;11.75;4.80;;;;;;;;;;5000383;28;20435;-77
2021/07/26 08:17:05;;;;;;;8.70;3.70;;;;;;;;;;4987274;28;20122;-77
2021/07/26 08:19:30;;;;;;;14.23;4.10;;;;;;;;;;4985164;28;20037;-77
2021/07/26 08:21:55;;;;;;;9.63;3.70;;;;;;;;;;5037349;28;20451;-79
2021/07/26 08:24:21;;;;;;;8.07;3.80;;;;;;;;;;5019919;28;20052;-77
2021/07/26 08:26:46;;;;;;;7.43;3.97;;;;;;;;;;5004516;28;20059;-79
2021/07/26 08:29:11;;;;;;;7.20;3.80;;;;;;;;;;5019295;28;20067;-76
2021/07/26 08:31:37;;;;;;;11.37;4.77;;;;;;;;;;5002518;28;20111;-78
2021/07/26 08:34:02;;;;;;;12.53;4.57;;;;;;;;;;5011704;28;20470;-77
2021/07/26 08:36:28;;;;;;;11.13;4.23;;;;;;;;;;5017284;28;20025;-78
2021/07/26 08:38:53;;;;;;;8.57;4.17;;;;;;;;;;5017632;28;20451;-78
2021/07/26 08:41:20;;;;;;;10.83;4.57;;;;;;;;;;5034281;28;20053;-76
2021/07/26 08:43:45;;;;;;;9.52;4.30;;;;;;;;;;5003710;28;20557;-80
2021/07/26 08:46:10;;;;;;;8.73;4.23;;;;;;;;;;5005266;28;20025;-77
2021/07/26 08:48:36;;;;;;;8.40;3.80;;;;;;;;;;5020361;28;20030;-77
2021/07/26 08:51:01;;;;;;;10.90;4.37;;;;;;;;;;5021791;28;20055;-78
2021/07/26 08:53:27;;;;;;;8.68;4.30;;;;;;;;;;5005881;28;20033;-78
2021/07/26 08:55:54;;;;;;;10.53;5.43;;;;;;;;;;5022378;28;20033;-77
2021/07/26 08:58:19;;;;;;;9.98;4.40;;;;;;;;;;5022425;28;20028;-76
2021/07/26 09:00:45;;;;;;;8.87;4.33;;;;;;;;;;5005976;28;20061;-77
2021/07/26 09:03:10;;;;;;;8.47;3.37;;;;;;;;;;5028058;28;20100;-77
2021/07/26 09:05:35;;;;;;;8.17;3.77;;;;;;;;;;5021792;28;20021;-75
2021/07/26 09:08:01;;;;;;;6.13;2.67;;;;;;;;;;5017869;28;20120;-75
2021/07/26 09:10:27;;;;;;;7.32;3.80;;;;;;;;;;5049168;28;20032;-76
2021/07/26 09:12:53;;;;;;;6.60;3.77;;;;;;;;;;5020776;28;20033;-76
2021/07/26 09:15:32;;;;;;;5.80;3.47;;;;;;;;;;5018065;28;20079;-77
2021/07/26 09:18:01;;;;;;;5.63;3.30;;;;;;;;;;5010648;28;20493;-78
2021/07/26 09:20:30;;;;;;;5.53;3.40;;;;;;;;;;5018280;28;20124;-78
2021/07/26 09:22:57;;;;;;;5.57;3.45;;;;;;;;;;5028033;28;20036;-76
2021/07/26 09:25:27;;;;;;;6.03;3.53;;;;;;;;;;5007282;28;20115;-78
2021/07/26 09:27:59;;;;;;;6.22;4.20;;;;;;;;;;5020954;28;20123;-76
2021/07/26 09:30:25;;;;;;;5.53;3.30;;;;;;;;;;5025157;28;20086;-75
2021/07/26 09:32:50;;;;;;;6.03;4.10;;;;;;;;;;5018214;28;20026;-75
2021/07/26 09:35:16;;;;;;;6.47;4.07;;;;;;;;;;5034089;28;20056;-78
2021/07/26 09:37:41;;;;;;;7.40;3.90;;;;;;;;;;5020957;28;20075;-77
2021/07/26 09:40:22;;;;;;;8.07;3.43;;;;;;;;;;5001723;28;20032;-77
2021/07/26 09:42:48;;;;;;;6.13;3.88;;;;;;;;;;5002542;28;20448;-76
2021/07/26 09:45:24;;;;;;;9.50;3.67;;;;;;;;;;5005779;28;20029;-76
2021/07/26 09:48:09;;;;;;;8.38;4.30;;;;;;;;;;5029545;28;20036;-78
2021/07/26 09:50:39;;;;;;;6.57;3.47;;;;;;;;;;5032001;28;20510;-77
2021/07/26 09:53:11;;;;;;;7.13;3.83;;;;;;;;;;5019456;28;20045;-77
2021/07/26 09:55:36;;;;;;;7.97;3.40;;;;;;;;;;5037424;28;20051;-76
2021/07/26 09:58:02;;;;;;;8.45;3.75;;;;;;;;;;4996350;28;20504;-77
2021/07/26 10:00:28;;;;;;;6.47;4.10;;;;;;;;;;5025603;28;20025;-79
2021/07/26 10:02:54;;;;;;;7.15;3.45;;;;;;;;;;5070461;23;20455;-77
2021/07/26 10:05:19;;;;;;;6.40;4.15;;;;;;;;;;4982127;28;20030;-77
2021/07/26 10:07:45;;;;;;;5.70;3.50;;;;;;;;;;5012758;28;20377;-77
2021/07/26 10:10:11;;;;;;;6.17;3.10;;;;;;;;;;4996348;28;20072;-77
2021/07/26 10:12:37;;;;;;;5.45;3.45;;;;;;;;;;4972868;28;20030;-78
2021/07/26 10:15:02;;;;;;;8.85;4.03;;;;;;;;;;4981781;28;20068;-77
2021/07/26 10:17:28;;;;;;;7.50;4.50;;;;;;;;;;5012906;28;20041;-77
2021/07/26 10:19:53;;;;;;;5.68;3.53;;;;;;;;;;4977735;28;20033;-77
2021/07/26 10:22:21;;;;;;;6.83;3.80;;;;;;;;;;4981080;28;20065;-77
2021/07/26 10:24:56;;;;;;;7.07;4.07;;;;;;;;;;4962245;28;20026;-77
2021/07/26 10:27:28;;;;;;;10.88;3.83;;;;;;;;;;4982000;28;20023;-77
2021/07/26 10:29:54;;;;;;;7.72;4.20;;;;;;;;;;4964018;28;20022;-77
2021/07/26 10:32:28;;;;;;;8.10;4.10;;;;;;;;;;4978373;28;20504;-77
2021/07/26 10:34:54;;;;;;;7.15;3.97;;;;;;;;;;4993877;28;20045;-76
2021/07/26 10:37:41;;;;;;;12.70;4.20;;;;;;;;;;5008135;28;20030;-77
2021/07/26 10:40:19;;;;;;;8.38;4.53;;;;;;;;;;5014647;28;20029;-77
2021/07/26 10:42:45;;;;;;;9.13;4.13;;;;;;;;;;5012091;28;20220;-76
2021/07/26 10:45:10;;;;;;;6.27;3.57;;;;;;;;;;4994059;28;20104;-77
2021/07/26 10:47:35;;;;;;;6.23;2.77;;;;;;;;;;4990595;28;20469;-77
2021/07/26 10:50:10;;;;;;;5.27;2.60;;;;;;;;;;5013166;28;20477;-76
2021/07/26 10:52:35;;;;;;;3.95;2.45;;;;;;;;;;5007075;28;20457;-77
2021/07/26 10:55:03;;;;;;;4.47;2.60;;;;;;;;;;4998100;28;20113;-76
2021/07/26 10:57:39;;;;;;;5.57;2.90;;;;;;;;;;4989294;28;20038;-77
2021/07/26 11:00:07;;;;;;;4.85;2.80;;;;;;;;;;4957734;28;20026;-77
2021/07/26 11:02:34;;;;;;;5.43;2.88;;;;;;;;;;4992833;28;20030;-77
2021/07/26 11:05:02;;;;;;;4.57;2.60;;;;;;;;;;4992589;28;20038;-76
2021/07/26 11:07:28;;;;;;;4.30;2.60;;;;;;;;;;4994208;28;20477;-76
2021/07/26 11:09:53;;;;;;;5.10;2.60;;;;;;;;;;5005019;28;20080;-76
2021/07/26 11:12:50;;;;;;;5.23;2.60;;;;;;;;;;4990974;28;20133;-76
2021/07/26 11:15:16;;;;;;;4.38;2.50;;;;;;;;;;4993326;28;20058;-77
2021/07/26 11:18:19;;;;;;;5.57;2.58;;;;;;;;;;5016776;28;20084;-77
2021/07/26 11:20:58;;;;;;;4.90;2.50;;;;;;;;;;5000543;28;20218;-77
2021/07/26 11:23:45;;;;;;;4.95;2.92;;;;;;;;;;5005212;28;20033;-77
2021/07/26 11:26:20;;;;;;;5.93;2.70;;;;;;;;;;4990946;28;20018;-77
2021/07/26 11:28:46;;;;;;;4.53;2.28;;;;;;;;;;4992955;28;20454;-76
2021/07/26 11:31:11;;;;;;;;;;;;;;;;;;5000206;28;20045;-76
2021/07/26 11:33:37;;;;;;;4.40;2.15;;;;;;;;;;5008171;28;20303;-76
2021/07/26 11:36:09;;;;;;;7.83;2.37;;;;;;;;;;5008767;28;20565;-76
2021/07/26 11:38:57;;;;;;;3.78;2.35;;;;;;;;;;4985751;28;20163;-77
2021/07/26 11:41:22;;;;;;;4.30;2.20;;;;;;;;;;4992548;28;20065;-77
2021/07/26 11:43:47;;;;;;;4.73;2.37;;;;;;;;;;4991563;28;20088;-77
2021/07/26 11:46:13;;;;;;;4.40;2.40;;;;;;;;;;4985278;28;20030;-76
2021/07/26 11:48:38;;;;;;;3.53;2.27;;;;;;;;;;4988990;28;20065;-76
2021/07/26 11:51:03;;;;;;;5.00;2.40;;;;;;;;;;5004204;28;20061;-76
2021/07/26 11:53:30;;;;;;;3.20;2.07;;;;;;;;;;4998661;28;20057;-76
2021/07/26 11:55:56;;;;;;;4.50;2.40;;;;;;;;;;4991073;28;20022;-76
2021/07/26 11:58:28;;;;;;;5.28;2.22;;;;;;;;;;4986648;28;20049;-77
2021/07/26 12:00:54;;;;;;;4.15;2.40;;;;;;;;;;4973472;28;20030;-77
2021/07/26 12:03:21;;;;;;;4.70;2.35;;;;;;;;;;4991654;28;20061;-77
2021/07/26 12:05:46;;;;;;;4.07;2.33;;;;;;;;;;4973973;28;20029;-77
2021/07/26 12:08:21;;;;;;;4.63;2.40;;;;;;;;;;5007644;28;20037;-76
2021/07/26 12:10:46;;;;;;;3.88;2.15;;;;;;;;;;4987103;28;20069;-76
2021/07/26 12:13:16;;;;;;;3.57;1.97;;;;;;;;;;4976945;28;20025;-76
2021/07/26 12:15:48;;;;;;;4.20;2.53;;;;;;;;;;4990034;28;20032;-77
2021/07/26 12:18:15;;;;;;;4.00;2.47;;;;;;;;;;5009620;28;20551;-76
2021/07/26 12:20:44;;;;;;;;;;;;;;;;;;4995894;28;20040;-76
2021/07/26 12:23:11;;;;;;;4.25;2.38;;;;;;;;;;5011962;28;19967;-77
2021/07/26 12:25:48;;;;;;;4.97;2.60;;;;;;;;;;4982921;28;20089;-76
2021/07/26 12:28:14;;;;;;;4.75;2.40;;;;;;;;;;4979401;28;20112;-77
2021/07/26 12:30:42;;;;;;;4.55;2.60;;;;;;;;;;4964165;28;20026;-77
2021/07/26 12:33:09;;;;;;;4.65;2.60;;;;;;;;;;4994910;28;20061;-77
2021/07/26 12:35:34;;;;;;;3.80;2.15;;;;;;;;;;5004238;28;20417;-76
2021/07/26 12:38:03;;;;;;;4.83;2.43;;;;;;;;;;4968317;28;20021;-76
2021/07/26 12:40:29;;;;;;;4.18;2.40;;;;;;;;;;4994125;28;20034;-76
2021/07/26 12:43:30;;;;;;;4.43;2.47;;;;;;;;;;5012506;28;20045;-76
2021/07/26 12:46:07;;;;;;;4.15;2.45;;;;;;;;;;4991455;28;20074;-77
2021/07/26 12:48:34;;;;;;;5.07;2.72;;;;;;;;;;5005792;28;20034;-77
2021/07/26 12:51:00;;;;;;;3.60;2.20;;;;;;;;;;4992013;28;20525;-77
2021/07/26 12:53:26;;;;;;;5.00;2.50;;;;;;;;;;5004616;28;20042;-76
2021/07/26 12:55:51;;;;;;;5.65;2.70;;;;;;;;;;5012192;28;20538;-77
2021/07/26 12:58:17;;;;;;;4.67;2.37;;;;;;;;;;5010531;28;20037;-76
2021/07/26 13:00:44;;;;;;;3.55;2.20;;;;;;;;;;4993972;28;20034;-77
2021/07/26 13:03:12;;;;;;;;;;;;;;;;;;5006965;28;20037;-76
2021/07/26 13:05:42;;;;;;;4.05;2.50;;;;;;;;;;5011790;28;19967;-77
2021/07/26 13:08:07;;;;;;;4.13;2.45;;;;;;;;;;4996685;28;20095;-76
2021/07/26 13:10:34;;;;;;;4.70;2.57;;;;;;;;;;5014476;28;20105;-76
2021/07/26 13:12:59;;;;;;;;;;;;;;;;;;4991788;28;20061;-77
2021/07/26 13:15:24;;;;;;;5.10;2.80;;;;;;;;;;5011694;28;19967;-77
2021/07/26 13:17:49;;;;;;;3.77;2.20;;;;;;;;;;4998094;28;20312;-77
2021/07/26 13:20:15;;;;;;;5.37;2.87;;;;;;;;;;5010987;28;20096;-77
2021/07/26 13:22:41;;;;;;;5.13;2.70;;;;;;;;;;4999689;28;20021;-77
2021/07/26 13:25:07;;;;;;;4.47;2.50;;;;;;;;;;4997222;28;20018;-77
2021/07/26 13:27:36;;;;;;;4.60;2.50;;;;;;;;;;4983209;28;20160;-77
2021/07/26 13:30:02;;;;;;;4.85;2.67;;;;;;;;;;4965252;28;20049;-77
2021/07/26 13:32:28;;;;;;;4.90;2.50;;;;;;;;;;5010158;28;20441;-77
2021/07/26 13:34:53;;;;;;;5.07;2.80;;;;;;;;;;4978863;28;20133;-77
2021/07/26 13:37:18;;;;;;;4.57;2.67;;;;;;;;;;4995233;28;20093;-77
2021/07/26 13:39:44;;;;;;;5.20;2.90;;;;;;;;;;4978950;28;20030;-76
2021/07/26 13:42:09;;;;;;;4.63;2.70;;;;;;;;;;5004481;28;20480;-77
2021/07/26 13:44:34;;;;;;;5.40;2.67;;;;;;;;;;4995031;28;20027;-77
2021/07/26 13:47:00;;;;;;;6.07;2.33;;;;;;;;;;4996006;28;20109;-77
2021/07/26 13:49:25;;;;;;;4.80;2.53;;;;;;;;;;5005877;28;20061;-76
2021/07/26 13:51:50;;;;;;;5.70;3.00;;;;;;;;;;5000357;28;20173;-76
2021/07/26 13:54:16;;;;;;;6.67;2.70;;;;;;;;;;4978602;28;20165;-76
2021/07/26 13:56:41;;;;;;;3.97;2.37;;;;;;;;;;4995883;28;20018;-76
2021/07/26 13:59:07;;;;;;;4.90;2.53;;;;;;;;;;4988427;28;20320;-76
2021/07/26 14:01:32;;;;;;;4.60;2.60;;;;;;;;;;5004350;28;20453;-77
2021/07/26 14:04:00;;;;;;;5.70;2.80;;;;;;;;;;5009796;28;20049;-77
2021/07/26 14:06:29;;;;;;;5.82;2.72;;;;;;;;;;4997593;28;20025;-76
2021/07/26 14:08:54;;;;;;;4.85;2.67;;;;;;;;;;5005090;28;20384;-77
2021/07/26 14:11:20;;;;;;;5.10;2.60;;;;;;;;;;4979674;28;20026;-77
2021/07/26 14:13:45;;;;;;;6.30;3.07;;;;;;;;;;4978155;28;20036;-76
2021/07/26 14:16:10;;;;;;;5.00;2.63;;;;;;;;;;4977971;28;20054;-77
2021/07/26 14:18:36;;;;;;;5.60;2.70;;;;;;;;;;4980868;28;20504;-76
2021/07/26 14:21:01;;;;;;;6.47;2.73;;;;;;;;;;4995195;28;20065;-77
2021/07/26 14:23:26;;;;;;;6.47;3.17;;;;;;;;;;4978077;28;20054;-77
2021/07/26 14:25:52;;;;;;;5.67;2.77;;;;;;;;;;4994433;28;20054;-76
2021/07/26 14:28:17;;;;;;;6.20;2.90;;;;;;;;;;5013366;28;20054;-77
2021/07/26 14:30:44;;;;;;;5.33;2.87;;;;;;;;;;5011426;28;20049;-77
2021/07/26 14:33:09;;;;;;;5.25;2.78;;;;;;;;;;5012494;28;20034;-77
2021/07/26 14:35:35;;;;;;;5.50;2.90;;;;;;;;;;5009806;28;20424;-77
2021/07/26 14:38:02;;;;;;;5.17;2.63;;;;;;;;;;5010421;28;20057;-77
2021/07/26 14:40:27;;;;;;;5.13;2.72;;;;;;;;;;4993762;28;20022;-77
2021/07/26 14:42:53;;;;;;;4.80;2.70;;;;;;;;;;5006884;28;20065;-77
2021/07/26 14:45:18;;;;;;;4.73;2.40;;;;;;;;;;4957558;28;20116;-77
2021/07/26 14:47:43;;;;;;;5.07;2.53;;;;;;;;;;4986256;28;20116;-77